Time;durP1;ratioP1;P1;durP2;ratioP2;P2;SDS_P1;SDS_P2;PMS_P1;PMS_P2;Temp;Humidity;BMP_temperature;BMP_pressure;BME280_temperature;BME280_humidity;BME280_pressure;Samples;Min_cycle;Max_cycle;Signal;HPM_P1;HPM_P2
2022/09/17 00:04:08;;;;;;;3.42;1.48;;;;;;;;;;10279487;28;20619;-64
2022/09/17 00:09:07;;;;;;;3.30;1.50;;;;;;;;;;10279690;28;20080;-63
2022/09/17 00:14:06;;;;;;;7.63;1.70;;;;;;;;;;10279641;28;20117;-63
2022/09/17 00:19:05;;;;;;;5.30;1.70;;;;;;;;;;10280357;28;20053;-63
2022/09/17 00:24:05;;;;;;;6.55;3.13;;;;;;;;;;10279535;28;20088;-63
2022/09/17 00:29:04;;;;;;;2.38;1.88;;;;;;;;;;10280386;28;20040;-63
2022/09/17 00:34:03;;;;;;;3.08;1.77;;;;;;;;;;10280034;28;20044;-62
2022/09/17 00:39:02;;;;;;;5.40;2.35;;;;;;;;;;10279842;28;20053;-62
2022/09/17 00:44:22;;;;;;;7.55;1.50;;;;;;;;;;10278725;28;20084;-63
2022/09/17 00:49:23;;;;;;;5.82;1.55;;;;;;;;;;10278936;28;20049;-64
2022/09/17 00:54:21;;;;;;;5.20;1.80;;;;;;;;;;10278769;28;20036;-64
2022/09/17 00:59:21;;;;;;;5.85;1.90;;;;;;;;;;10279124;28;20053;-63
2022/09/17 01:04:21;;;;;;;3.30;1.92;;;;;;;;;;10278823;28;20485;-63
2022/09/17 01:09:24;;;;;;;5.75;2.17;;;;;;;;;;10278829;28;20048;-62
2022/09/17 01:14:31;;;;;;;6.35;2.90;;;;;;;;;;10278483;28;20088;-63
2022/09/17 01:19:50;;;;;;;5.15;2.67;;;;;;;;;;10277912;28;20053;-63
2022/09/17 01:24:49;;;;;;;7.18;2.60;;;;;;;;;;10276877;28;20669;-63
2022/09/17 01:29:57;;;;;;;5.05;1.90;;;;;;;;;;10277458;28;20426;-63
2022/09/17 01:34:59;;;;;;;9.55;2.78;;;;;;;;;;10277304;28;20045;-65
2022/09/17 01:40:01;;;;;;;5.45;2.08;;;;;;;;;;10275823;28;20041;-65
2022/09/17 01:45:04;;;;;;;6.30;2.40;;;;;;;;;;10276876;28;20478;-65
2022/09/17 01:50:07;;;;;;;9.45;2.60;;;;;;;;;;10277318;28;20099;-65
2022/09/17 01:55:07;;;;;;;7.70;2.50;;;;;;;;;;10276938;28;20402;-65
2022/09/17 02:00:08;;;;;;;7.32;3.47;;;;;;;;;;10276831;28;20053;-65
2022/09/17 02:05:14;;;;;;;5.22;2.28;;;;;;;;;;10276480;28;20091;-65
2022/09/17 02:10:13;;;;;;;6.97;2.08;;;;;;;;;;10274820;28;20067;-65
2022/09/17 02:15:14;;;;;;;7.68;2.50;;;;;;;;;;10276367;28;20052;-65
2022/09/17 02:20:15;;;;;;;8.07;2.38;;;;;;;;;;10275367;28;20045;-66
2022/09/17 02:25:24;;;;;;;7.47;2.33;;;;;;;;;;10274399;28;20084;-66
2022/09/17 02:30:22;;;;;;;8.85;2.65;;;;;;;;;;10273520;28;20060;-65
2022/09/17 02:35:22;;;;;;;8.35;2.15;;;;;;;;;;10274496;28;20048;-65
2022/09/17 02:40:21;;;;;;;10.10;3.00;;;;;;;;;;10274432;28;20461;-66
2022/09/17 02:45:25;;;;;;;6.22;2.10;;;;;;;;;;10274064;28;20048;-64
2022/09/17 02:50:30;;;;;;;10.00;2.33;;;;;;;;;;10273811;28;20419;-65
2022/09/17 02:55:31;;;;;;;6.47;2.72;;;;;;;;;;10273932;28;20044;-64
2022/09/17 03:00:30;;;;;;;7.72;2.05;;;;;;;;;;10273079;28;20506;-65
2022/09/17 03:05:30;;;;;;;4.35;2.25;;;;;;;;;;10273689;28;20049;-65
2022/09/17 03:10:32;;;;;;;5.45;2.38;;;;;;;;;;10273573;28;20048;-65
2022/09/17 03:15:30;;;;;;;5.78;2.38;;;;;;;;;;10274603;28;20056;-65
2022/09/17 03:20:30;;;;;;;6.85;3.22;;;;;;;;;;10273199;28;20041;-66
2022/09/17 03:25:28;;;;;;;5.82;2.33;;;;;;;;;;10272503;28;20076;-66
2022/09/17 03:30:26;;;;;;;4.55;2.38;;;;;;;;;;10273621;28;20410;-66
2022/09/17 03:35:25;;;;;;;7.85;2.25;;;;;;;;;;10274246;28;20091;-66
2022/09/17 03:40:24;;;;;;;5.50;2.67;;;;;;;;;;10278146;28;20053;-66
2022/09/17 03:45:23;;;;;;;13.15;2.10;;;;;;;;;;10281304;28;20172;-65
2022/09/17 03:50:21;;;;;;;7.10;2.85;;;;;;;;;;10280713;28;20045;-66
2022/09/17 03:55:19;;;;;;;10.95;2.65;;;;;;;;;;10280442;28;20091;-65
2022/09/17 04:00:19;;;;;;;6.55;2.55;;;;;;;;;;10280996;28;20053;-65
2022/09/17 04:05:17;;;;;;;8.32;3.25;;;;;;;;;;10280838;28;20107;-64
2022/09/17 04:10:16;;;;;;;6.03;2.15;;;;;;;;;;10281145;28;20073;-65
2022/09/17 04:15:14;;;;;;;5.47;2.08;;;;;;;;;;10278135;28;20064;-65
2022/09/17 04:20:14;;;;;;;9.05;4.45;;;;;;;;;;10309097;28;20045;-66
2022/09/17 04:25:12;;;;;;;9.30;3.65;;;;;;;;;;10302093;28;20092;-65
2022/09/17 04:30:11;;;;;;;7.88;4.40;;;;;;;;;;10288223;28;20051;-66
2022/09/17 04:35:09;;;;;;;18.55;14.70;;;;;;;;;;10279488;28;20045;-66
2022/09/17 04:40:10;;;;;;;17.65;8.70;;;;;;;;;;10279056;28;20423;-65
2022/09/17 04:45:09;;;;;;;18.15;6.90;;;;;;;;;;10278152;28;20092;-65
2022/09/17 04:50:07;;;;;;;17.10;6.82;;;;;;;;;;10277022;28;20077;-66
2022/09/17 04:55:06;;;;;;;15.23;6.22;;;;;;;;;;10284973;28;20136;-66
2022/09/17 05:00:07;;;;;;;29.08;13.88;;;;;;;;;;10299526;28;20522;-65
2022/09/17 05:05:05;;;;;;;19.65;11.43;;;;;;;;;;10292586;28;20044;-66
2022/09/17 05:10:03;;;;;;;22.05;17.20;;;;;;;;;;10305988;28;20068;-65
2022/09/17 05:15:02;;;;;;;9.50;6.07;;;;;;;;;;10287711;28;20068;-66
2022/09/17 05:20:02;;;;;;;13.02;5.90;;;;;;;;;;10276189;28;20495;-65
2022/09/17 05:25:00;;;;;;;12.90;8.05;;;;;;;;;;10282613;28;20466;-66
2022/09/17 05:29:59;;;;;;;11.85;5.68;;;;;;;;;;10294021;28;20072;-65
2022/09/17 05:34:57;;;;;;;12.82;6.45;;;;;;;;;;10295437;28;20036;-65
2022/09/17 05:40:02;;;;;;;17.77;4.83;;;;;;;;;;10292205;28;20083;-65
2022/09/17 05:45:00;;;;;;;14.45;5.43;;;;;;;;;;10288710;28;20075;-66
2022/09/17 05:49:59;;;;;;;12.35;4.60;;;;;;;;;;10293348;28;20071;-65
2022/09/17 05:54:57;;;;;;;13.85;4.07;;;;;;;;;;10292860;28;20446;-65
2022/09/17 05:59:57;;;;;;;22.42;7.07;;;;;;;;;;10293820;28;20099;-66
2022/09/17 06:04:59;;;;;;;24.30;18.80;;;;;;;;;;10294752;28;20076;-66
2022/09/17 06:09:57;;;;;;;10.18;4.97;;;;;;;;;;10291854;28;20041;-66
2022/09/17 06:14:57;;;;;;;12.18;5.78;;;;;;;;;;10292880;28;20072;-65
2022/09/17 06:19:55;;;;;;;10.20;5.18;;;;;;;;;;10295533;28;20094;-64
2022/09/17 06:24:54;;;;;;;15.75;4.97;;;;;;;;;;10293574;28;20121;-65
2022/09/17 06:29:52;;;;;;;23.20;5.15;;;;;;;;;;10294062;28;20049;-65
2022/09/17 06:34:51;;;;;;;16.50;4.50;;;;;;;;;;10295963;28;20491;-65
2022/09/17 06:39:50;;;;;;;11.90;3.78;;;;;;;;;;10299097;28;20088;-65
2022/09/17 06:44:48;;;;;;;16.17;6.35;;;;;;;;;;10314410;28;20072;-64
2022/09/17 06:49:46;;;;;;;12.40;4.20;;;;;;;;;;10314553;28;20072;-66
2022/09/17 06:54:46;;;;;;;11.15;4.93;;;;;;;;;;10311987;28;20041;-64
2022/09/17 06:59:44;;;;;;;14.05;4.80;;;;;;;;;;10288221;28;20079;-65
2022/09/17 07:04:42;;;;;;;21.05;5.97;;;;;;;;;;10277874;28;20080;-65
2022/09/17 07:09:41;;;;;;;16.13;4.80;;;;;;;;;;10286048;28;20060;-65
2022/09/17 07:14:40;;;;;;;13.63;6.50;;;;;;;;;;10294817;28;20071;-65
2022/09/17 07:19:38;;;;;;;24.75;11.95;;;;;;;;;;10300560;28;20072;-66
2022/09/17 07:24:37;;;;;;;13.90;7.95;;;;;;;;;;10298938;28;20210;-64
2022/09/17 07:29:35;;;;;;;15.38;8.70;;;;;;;;;;10299895;28;20077;-65
2022/09/17 07:34:35;;;;;;;14.38;4.47;;;;;;;;;;10292786;28;20069;-63
2022/09/17 07:39:33;;;;;;;20.23;5.95;;;;;;;;;;10300646;28;20068;-65
2022/09/17 07:44:31;;;;;;;12.82;4.78;;;;;;;;;;10303830;28;20289;-62
2022/09/17 07:49:29;;;;;;;15.07;5.18;;;;;;;;;;10297328;28;20037;-65
2022/09/17 07:54:29;;;;;;;13.98;4.28;;;;;;;;;;10300668;28;20068;-64
2022/09/17 07:59:28;;;;;;;14.35;7.07;;;;;;;;;;10301303;28;20459;-64
2022/09/17 08:04:26;;;;;;;14.38;4.97;;;;;;;;;;10299597;28;20397;-64
2022/09/17 08:09:24;;;;;;;18.50;7.38;;;;;;;;;;10286019;28;20079;-65
2022/09/17 08:14:24;;;;;;;28.73;7.47;;;;;;;;;;10285154;28;20041;-64
2022/09/17 08:19:27;;;;;;;17.67;5.45;;;;;;;;;;10280253;28;20077;-65
2022/09/17 08:24:26;;;;;;;30.63;14.82;;;;;;;;;;10278738;28;20080;-64
2022/09/17 08:29:26;;;;;;;11.50;6.63;;;;;;;;;;10289762;28;20083;-66
2022/09/17 08:34:26;;;;;;;18.35;6.43;;;;;;;;;;10295458;28;20072;-65
2022/09/17 08:39:25;;;;;;;15.30;5.63;;;;;;;;;;10296103;28;20747;-65
2022/09/17 08:44:27;;;;;;;16.75;6.07;;;;;;;;;;10298111;28;20060;-66
2022/09/17 08:49:30;;;;;;;15.68;6.50;;;;;;;;;;10295935;28;20568;-64
2022/09/17 08:54:31;;;;;;;10.83;4.00;;;;;;;;;;10292405;28;20065;-65
2022/09/17 08:59:35;;;;;;;8.55;3.33;;;;;;;;;;10300556;28;20060;-65
2022/09/17 09:04:33;;;;;;;;;;;;;;;;;;10290761;28;20475;-66
2022/09/17 09:09:34;;;;;;;10.02;3.85;;;;;;;;;;10290986;28;19970;-66
2022/09/17 09:14:38;;;;;;;17.67;4.93;;;;;;;;;;10294619;28;20060;-66
2022/09/17 09:19:45;;;;;;;7.75;2.90;;;;;;;;;;10276811;28;20506;-66
2022/09/17 09:24:52;;;;;;;6.05;2.90;;;;;;;;;;10277460;28;20064;-65
2022/09/17 09:30:02;;;;;;;14.38;3.83;;;;;;;;;;10274511;28;20080;-65
2022/09/17 09:35:02;;;;;;;13.45;4.30;;;;;;;;;;10294269;28;20079;-64
2022/09/17 09:40:03;;;;;;;8.25;4.30;;;;;;;;;;10295741;28;20059;-64
2022/09/17 09:45:11;;;;;;;7.05;3.67;;;;;;;;;;10294844;28;20049;-64
2022/09/17 09:50:21;;;;;;;8.77;4.43;;;;;;;;;;10297769;28;20063;-64
2022/09/17 09:55:28;;;;;;;7.32;4.80;;;;;;;;;;10310029;28;20083;-66
2022/09/17 10:00:30;;;;;;;12.43;4.40;;;;;;;;;;10316287;28;20473;-66
2022/09/17 10:05:29;;;;;;;11.73;4.18;;;;;;;;;;10312884;28;20214;-65
2022/09/17 10:10:28;;;;;;;7.53;3.47;;;;;;;;;;10292623;28;20136;-63
2022/09/17 10:15:43;;;;;;;10.18;2.80;;;;;;;;;;10278298;28;20041;-65
2022/09/17 10:20:59;;;;;;;3.60;2.20;;;;;;;;;;10296548;28;20497;-65
2022/09/17 10:26:00;;;;;;;5.18;1.65;;;;;;;;;;10287529;28;20072;-66
2022/09/17 10:31:02;;;;;;;5.75;2.22;;;;;;;;;;10283650;28;20062;-65
2022/09/17 10:36:08;;;;;;;6.72;1.90;;;;;;;;;;10278432;28;20767;-67
2022/09/17 10:41:12;;;;;;;6.07;2.40;;;;;;;;;;10306422;28;20489;-65
2022/09/17 10:46:13;;;;;;;7.97;3.87;;;;;;;;;;10291733;28;20080;-65
2022/09/17 10:51:20;;;;;;;10.75;6.00;;;;;;;;;;10293470;28;20670;-64
2022/09/17 10:56:20;;;;;;;24.48;10.10;;;;;;;;;;10315725;28;20040;-66
2022/09/17 11:01:26;;;;;;;13.25;9.10;;;;;;;;;;10314805;28;20502;-66
2022/09/17 11:06:48;;;;;;;6.30;4.03;;;;;;;;;;10305172;28;20068;-66
2022/09/17 11:11:52;;;;;;;9.82;4.15;;;;;;;;;;10272258;28;20454;-66
2022/09/17 11:16:59;;;;;;;17.13;8.27;;;;;;;;;;10279099;28;20506;-67
2022/09/17 11:22:02;;;;;;;13.40;8.63;;;;;;;;;;10273550;28;20049;-67
2022/09/17 11:27:05;;;;;;;11.23;8.00;;;;;;;;;;10273258;28;20080;-66
2022/09/17 11:32:07;;;;;;;11.88;5.70;;;;;;;;;;10273965;28;20494;-66
2022/09/17 11:37:10;;;;;;;14.50;4.53;;;;;;;;;;10274388;28;20045;-66
2022/09/17 11:42:10;;;;;;;8.02;3.58;;;;;;;;;;10274327;28;20502;-65
2022/09/17 11:47:12;;;;;;;8.48;3.38;;;;;;;;;;10271921;28;20542;-66
2022/09/17 11:52:13;;;;;;;8.27;2.78;;;;;;;;;;10271757;28;20072;-66
2022/09/17 11:57:14;;;;;;;11.93;2.97;;;;;;;;;;10271762;28;20072;-67
2022/09/17 12:02:19;;;;;;;5.57;3.45;;;;;;;;;;10277624;28;20049;-68
2022/09/17 12:07:27;;;;;;;9.00;4.45;;;;;;;;;;10283821;28;20087;-65
2022/09/17 12:12:27;;;;;;;8.85;4.38;;;;;;;;;;10286067;28;20330;-65
2022/09/17 12:17:50;;;;;;;11.18;4.22;;;;;;;;;;10287332;28;20478;-66
2022/09/17 12:23:10;;;;;;;8.73;4.35;;;;;;;;;;10287687;28;20072;-66
2022/09/17 12:28:11;;;;;;;8.50;3.80;;;;;;;;;;10283463;28;20076;-66
2022/09/17 12:33:24;;;;;;;13.27;4.95;;;;;;;;;;10293228;28;20051;-66
2022/09/17 12:38:34;;;;;;;14.50;4.05;;;;;;;;;;10275578;28;20533;-66
2022/09/17 12:43:40;;;;;;;11.35;5.40;;;;;;;;;;10280678;28;20083;-65
2022/09/17 12:48:53;;;;;;;8.88;4.35;;;;;;;;;;10280065;28;20069;-67
2022/09/17 12:53:58;;;;;;;10.82;4.05;;;;;;;;;;10282002;28;20524;-67
2022/09/17 12:59:05;;;;;;;5.55;3.42;;;;;;;;;;10284319;28;20060;-66
2022/09/17 13:04:11;;;;;;;7.47;4.30;;;;;;;;;;10280639;28;20075;-66
2022/09/17 13:09:17;;;;;;;8.52;3.80;;;;;;;;;;10278564;28;20099;-70
2022/09/17 13:14:20;;;;;;;7.68;3.42;;;;;;;;;;10285840;28;20075;-67
2022/09/17 13:19:24;;;;;;;8.23;4.07;;;;;;;;;;10284125;28;20443;-66
2022/09/17 13:24:25;;;;;;;13.38;7.35;;;;;;;;;;10283179;28;20578;-66
2022/09/17 13:29:55;;;;;;;21.23;9.73;;;;;;;;;;10281080;28;20069;-66
2022/09/17 13:34:53;;;;;;;14.13;5.75;;;;;;;;;;10201996;28;20471;-66
2022/09/17 13:39:53;;;;;;;17.00;9.30;;;;;;;;;;10281907;28;20069;-67
2022/09/17 13:44:53;;;;;;;13.25;5.45;;;;;;;;;;10280482;28;20458;-66
2022/09/17 13:49:54;;;;;;;13.00;5.97;;;;;;;;;;10274931;28;20083;-65
2022/09/17 13:54:54;;;;;;;9.23;4.43;;;;;;;;;;10283594;28;20095;-65
2022/09/17 13:59:53;;;;;;;9.38;4.72;;;;;;;;;;10276431;28;20083;-66
2022/09/17 14:04:51;;;;;;;6.93;3.55;;;;;;;;;;10276551;28;20080;-66
2022/09/17 14:09:51;;;;;;;10.05;3.03;;;;;;;;;;10272592;28;20088;-66
2022/09/17 14:14:52;;;;;;;7.20;2.55;;;;;;;;;;10271765;28;20076;-65
2022/09/17 14:19:54;;;;;;;7.43;2.95;;;;;;;;;;10277120;28;20073;-65
2022/09/17 14:24:53;;;;;;;4.65;2.63;;;;;;;;;;10275088;28;20110;-65
2022/09/17 14:30:09;;;;;;;5.90;2.45;;;;;;;;;;10279016;28;20072;-65
2022/09/17 14:35:15;;;;;;;7.43;2.55;;;;;;;;;;10265383;28;20099;-64
2022/09/17 14:40:19;;;;;;;8.98;2.65;;;;;;;;;;10271841;28;20064;-66
2022/09/17 14:45:19;;;;;;;5.07;2.90;;;;;;;;;;10277456;28;20502;-65
2022/09/17 14:50:23;;;;;;;5.88;2.85;;;;;;;;;;10276418;28;20068;-64
2022/09/17 14:55:22;;;;;;;3.40;2.05;;;;;;;;;;10273230;28;20076;-65
2022/09/17 15:00:23;;;;;;;4.88;3.20;;;;;;;;;;10282768;28;20075;-66
2022/09/17 15:05:24;;;;;;;12.32;2.67;;;;;;;;;;10273536;28;20076;-66
2022/09/17 15:10:23;;;;;;;7.20;3.28;;;;;;;;;;10276500;28;20510;-66
2022/09/17 15:15:22;;;;;;;5.97;4.03;;;;;;;;;;10277909;28;20458;-66
2022/09/17 15:20:22;;;;;;;5.18;2.58;;;;;;;;;;10279156;28;20071;-66
2022/09/17 15:25:25;;;;;;;9.30;2.72;;;;;;;;;;10279924;28;20120;-66
2022/09/17 15:30:24;;;;;;;4.93;2.65;;;;;;;;;;10275548;28;20068;-66
2022/09/17 15:35:26;;;;;;;4.80;2.47;;;;;;;;;;10278998;28;20122;-66
2022/09/17 15:40:30;;;;;;;5.68;2.90;;;;;;;;;;10286746;28;20091;-66
2022/09/17 15:45:30;;;;;;;4.78;2.47;;;;;;;;;;10284574;28;20075;-67
2022/09/17 15:50:29;;;;;;;4.95;2.17;;;;;;;;;;10287641;28;20490;-65
2022/09/17 15:55:31;;;;;;;4.82;2.88;;;;;;;;;;10289629;28;20075;-65
2022/09/17 16:00:30;;;;;;;5.68;2.70;;;;;;;;;;10289501;28;20067;-66
2022/09/17 16:05:43;;;;;;;6.85;2.42;;;;;;;;;;10286913;28;20493;-66
2022/09/17 16:10:43;;;;;;;4.95;2.53;;;;;;;;;;10289003;28;20084;-66
2022/09/17 16:15:41;;;;;;;5.95;2.70;;;;;;;;;;10287230;28;20072;-66
2022/09/17 16:20:39;;;;;;;7.90;4.80;;;;;;;;;;10287069;28;20494;-65
2022/09/17 16:25:39;;;;;;;7.20;4.13;;;;;;;;;;10281371;28;20087;-66
2022/09/17 16:30:43;;;;;;;6.50;3.35;;;;;;;;;;10289982;28;20550;-63
2022/09/17 16:35:42;;;;;;;4.75;3.03;;;;;;;;;;10283535;28;20069;-62
2022/09/17 16:40:41;;;;;;;4.25;2.53;;;;;;;;;;10286071;28;20075;-64
2022/09/17 16:45:40;;;;;;;6.70;2.05;;;;;;;;;;10282004;28;20033;-63
2022/09/17 16:50:41;;;;;;;8.15;2.38;;;;;;;;;;10288688;28;20095;-63
2022/09/17 16:55:40;;;;;;;5.13;2.30;;;;;;;;;;10285177;28;20084;-63
2022/09/17 17:00:38;;;;;;;2.70;1.98;;;;;;;;;;10284459;28;20076;-63
2022/09/17 17:05:36;;;;;;;4.53;1.85;;;;;;;;;;10285241;28;20090;-63
2022/09/17 17:10:37;;;;;;;3.40;2.03;;;;;;;;;;10283708;28;20079;-63
2022/09/17 17:15:36;;;;;;;2.75;2.17;;;;;;;;;;10279467;28;20065;-63
2022/09/17 17:20:34;;;;;;;2.80;1.98;;;;;;;;;;10282769;28;20540;-64
2022/09/17 17:25:33;;;;;;;3.13;1.70;;;;;;;;;;10287590;28;20486;-64
2022/09/17 17:30:33;;;;;;;2.85;1.85;;;;;;;;;;10284664;28;20076;-63
2022/09/17 17:35:32;;;;;;;7.32;4.10;;;;;;;;;;10283285;28;20076;-63
2022/09/17 17:40:30;;;;;;;5.13;2.35;;;;;;;;;;10289082;28;20491;-64
2022/09/17 17:45:29;;;;;;;9.65;2.17;;;;;;;;;;10283441;28;20481;-62
2022/09/17 17:50:28;;;;;;;5.20;2.03;;;;;;;;;;10284485;28;20076;-63
2022/09/17 17:55:26;;;;;;;8.38;3.20;;;;;;;;;;10286992;28;20060;-64
2022/09/17 18:00:25;;;;;;;4.38;2.25;;;;;;;;;;10284335;28;20072;-64
2022/09/17 18:05:23;;;;;;;8.25;3.00;;;;;;;;;;10286557;28;20072;-62
2022/09/17 18:10:23;;;;;;;2.28;1.90;;;;;;;;;;10287701;28;20067;-63
2022/09/17 18:15:21;;;;;;;4.43;2.15;;;;;;;;;;10282820;28;20076;-62
2022/09/17 18:20:20;;;;;;;4.53;2.10;;;;;;;;;;10284305;28;20075;-63
2022/09/17 18:25:19;;;;;;;5.47;2.47;;;;;;;;;;10277392;28;20084;-63
2022/09/17 18:30:18;;;;;;;4.25;2.08;;;;;;;;;;10280073;28;20068;-63
2022/09/17 18:35:18;;;;;;;5.32;1.80;;;;;;;;;;10281536;28;20480;-63
2022/09/17 18:40:17;;;;;;;2.33;1.70;;;;;;;;;;10276226;28;20060;-62
2022/09/17 18:45:15;;;;;;;4.63;1.83;;;;;;;;;;10285292;28;20072;-64
2022/09/17 18:50:15;;;;;;;5.18;1.52;;;;;;;;;;10275499;28;20076;-63
2022/09/17 18:55:13;;;;;;;2.72;1.98;;;;;;;;;;10277193;28;20064;-64
2022/09/17 19:00:12;;;;;;;2.25;1.40;;;;;;;;;;10275433;28;20075;-64
2022/09/17 19:05:10;;;;;;;5.78;1.85;;;;;;;;;;10272005;28;20057;-63
2022/09/17 19:10:10;;;;;;;2.65;1.38;;;;;;;;;;10281380;28;20075;-63
2022/09/17 19:15:09;;;;;;;2.63;1.30;;;;;;;;;;10290235;28;20063;-64
2022/09/17 19:20:08;;;;;;;3.15;1.40;;;;;;;;;;10297450;28;20091;-64
2022/09/17 19:25:08;;;;;;;2.40;1.25;;;;;;;;;;10291357;28;20084;-64
2022/09/17 19:30:08;;;;;;;2.33;1.77;;;;;;;;;;10288899;28;20073;-63
2022/09/17 19:35:08;;;;;;;3.70;1.70;;;;;;;;;;10287276;28;20523;-63
2022/09/17 19:40:07;;;;;;;4.00;1.55;;;;;;;;;;10286188;28;20072;-63
2022/09/17 19:45:06;;;;;;;2.03;1.50;;;;;;;;;;10287732;28;20106;-63
2022/09/17 19:50:06;;;;;;;3.45;1.50;;;;;;;;;;10288362;28;20076;-64
2022/09/17 19:55:04;;;;;;;2.25;1.45;;;;;;;;;;10281925;28;20073;-63
2022/09/17 20:00:10;;;;;;;2.58;1.20;;;;;;;;;;10286654;28;20079;-63
2022/09/17 20:05:09;;;;;;;3.13;1.48;;;;;;;;;;10286086;28;20084;-63
2022/09/17 20:10:08;;;;;;;2.10;1.27;;;;;;;;;;10286233;28;20091;-64
2022/09/17 20:15:07;;;;;;;1.50;1.30;;;;;;;;;;10285106;28;20536;-63
2022/09/17 20:20:06;;;;;;;4.18;1.67;;;;;;;;;;10284877;28;20065;-64
2022/09/17 20:25:06;;;;;;;1.70;1.27;;;;;;;;;;10285649;28;20069;-64
2022/09/17 20:30:05;;;;;;;4.53;1.30;;;;;;;;;;10285151;28;20065;-64
2022/09/17 20:35:04;;;;;;;2.70;1.77;;;;;;;;;;10285976;28;20198;-64
2022/09/17 20:40:02;;;;;;;2.45;1.27;;;;;;;;;;10284587;28;20064;-63
2022/09/17 20:45:02;;;;;;;1.73;1.63;;;;;;;;;;10284069;28;20524;-63
2022/09/17 20:50:01;;;;;;;2.08;1.15;;;;;;;;;;10284907;28;20080;-64
2022/09/17 20:55:00;;;;;;;2.95;1.23;;;;;;;;;;10284844;28;20073;-63
2022/09/17 21:00:00;;;;;;;2.42;1.25;;;;;;;;;;10283943;28;20144;-64
2022/09/17 21:04:59;;;;;;;1.63;1.05;;;;;;;;;;10284579;28;20072;-64
2022/09/17 21:09:57;;;;;;;1.77;1.13;;;;;;;;;;10285261;28;20148;-63
2022/09/17 21:14:55;;;;;;;10.07;1.50;;;;;;;;;;10282174;28;20075;-64
2022/09/17 21:19:54;;;;;;;2.90;1.30;;;;;;;;;;10277897;28;20076;-64
2022/09/17 21:24:53;;;;;;;2.00;1.17;;;;;;;;;;10279812;28;20541;-64
2022/09/17 21:29:51;;;;;;;2.75;1.05;;;;;;;;;;10287106;28;20091;-64
2022/09/17 21:34:50;;;;;;;3.72;0.90;;;;;;;;;;10276169;28;20060;-64
2022/09/17 21:39:48;;;;;;;3.40;1.35;;;;;;;;;;10277626;28;20071;-64
2022/09/17 21:44:50;;;;;;;1.08;0.93;;;;;;;;;;10279343;28;20448;-64
2022/09/17 21:49:48;;;;;;;1.60;0.70;;;;;;;;;;10282680;28;20072;-64
2022/09/17 21:54:47;;;;;;;1.42;1.00;;;;;;;;;;10282911;28;20072;-63
2022/09/17 21:59:45;;;;;;;4.05;1.52;;;;;;;;;;10276133;28;20068;-64
2022/09/17 22:04:45;;;;;;;3.70;1.00;;;;;;;;;;10276879;28;20083;-63
2022/09/17 22:09:43;;;;;;;1.67;1.00;;;;;;;;;;10277224;28;20083;-63
2022/09/17 22:14:41;;;;;;;2.15;1.15;;;;;;;;;;10282286;28;20072;-65
2022/09/17 22:19:39;;;;;;;2.45;1.05;;;;;;;;;;10281495;28;20064;-65
2022/09/17 22:24:43;;;;;;;3.45;1.10;;;;;;;;;;10285290;28;20083;-64
2022/09/17 22:29:41;;;;;;;1.67;1.00;;;;;;;;;;10276447;28;20103;-64
2022/09/17 22:34:39;;;;;;;3.00;1.50;;;;;;;;;;10284319;28;20540;-63
2022/09/17 22:39:39;;;;;;;2.47;0.80;;;;;;;;;;10283257;28;20065;-63
2022/09/17 22:44:37;;;;;;;3.08;1.00;;;;;;;;;;10280532;28;20065;-63
2022/09/17 22:49:35;;;;;;;2.67;1.23;;;;;;;;;;10282170;28;20088;-64
2022/09/17 22:54:33;;;;;;;1.23;1.00;;;;;;;;;;10284396;28;20071;-64
2022/09/17 22:59:33;;;;;;;2.10;1.15;;;;;;;;;;10279323;28;20080;-64
2022/09/17 23:04:31;;;;;;;4.35;1.83;;;;;;;;;;10275212;28;20072;-64
2022/09/17 23:09:29;;;;;;;2.03;1.38;;;;;;;;;;10280783;28;20068;-64
2022/09/17 23:14:28;;;;;;;1.80;1.13;;;;;;;;;;10281838;28;20065;-64
2022/09/17 23:19:27;;;;;;;1.73;0.85;;;;;;;;;;10281628;28;20064;-64
2022/09/17 23:24:26;;;;;;;2.15;1.40;;;;;;;;;;10279292;28;20083;-63
2022/09/17 23:29:24;;;;;;;1.27;1.17;;;;;;;;;;10280287;28;20061;-64
2022/09/17 23:34:22;;;;;;;2.58;1.00;;;;;;;;;;10280602;28;20069;-63
2022/09/17 23:39:22;;;;;;;3.72;1.10;;;;;;;;;;10280621;28;20567;-63
2022/09/17 23:44:20;;;;;;;1.23;0.98;;;;;;;;;;10282883;28;20069;-64
2022/09/17 23:49:18;;;;;;;3.17;1.10;;;;;;;;;;10280774;28;20069;-63
2022/09/17 23:54:17;;;;;;;5.18;1.45;;;;;;;;;;10283442;28;20526;-64
2022/09/17 23:59:16;;;;;;;3.85;1.65;;;;;;;;;;10287581;28;20069;-63
